Time;durP1;ratioP1;P1;durP2;ratioP2;P2;SDS_P1;SDS_P2;PMS_P1;PMS_P2;Temp;Humidity;BMP_temperature;BMP_pressure;BME280_temperature;BME280_humidity;BME280_pressure;Samples;Min_cycle;Max_cycle;Signal;HPM_P1;HPM_P2
2022/10/25 00:01:44;;;;;;;0.60;0.60;;;9.40;99.90;;;;;;5035552;28;20195;-79
2022/10/25 00:04:10;;;;;;;0.67;0.67;;;9.40;99.90;;;;;;5036103;28;20274;-79
2022/10/25 00:06:35;;;;;;;0.50;0.50;;;9.40;99.90;;;;;;5036114;28;20644;-78
2022/10/25 00:09:01;;;;;;;0.60;0.60;;;9.30;99.90;;;;;;5036467;28;20703;-79
2022/10/25 00:11:29;;;;;;;0.60;0.60;;;9.20;99.90;;;;;;5041254;28;20210;-79
2022/10/25 00:13:57;;;;;;;0.63;0.63;;;9.20;99.90;;;;;;5042074;28;20691;-79
2022/10/25 00:16:26;;;;;;;0.70;0.70;;;9.10;99.90;;;;;;5038458;28;20279;-78
2022/10/25 00:18:52;;;;;;;0.60;0.60;;;9.10;99.90;;;;;;5036652;28;20179;-79
2022/10/25 00:21:17;;;;;;;0.73;0.73;;;9.10;99.90;;;;;;5035925;28;20200;-79
2022/10/25 00:23:43;;;;;;;0.60;0.60;;;9.10;99.90;;;;;;5036428;28;20271;-79
2022/10/25 00:26:10;;;;;;;0.60;0.60;;;9.00;99.90;;;;;;5037106;28;20835;-78
2022/10/25 00:28:37;;;;;;;0.60;0.60;;;9.00;99.90;;;;;;5037138;28;20194;-79
2022/10/25 00:31:06;;;;;;;0.60;0.60;;;8.90;99.90;;;;;;5035738;28;20203;-79
2022/10/25 00:33:33;;;;;;;0.60;0.60;;;8.90;99.90;;;;;;5044250;28;20239;-78
2022/10/25 00:36:05;;;;;;;0.70;0.70;;;8.80;99.90;;;;;;5040507;28;20199;-79
2022/10/25 00:38:30;;;;;;;0.60;0.60;;;8.80;99.90;;;;;;5044298;28;20218;-78
2022/10/25 00:40:56;;;;;;;0.60;0.60;;;8.80;99.90;;;;;;5047222;28;20246;-79
2022/10/25 00:43:34;;;;;;;0.60;0.60;;;8.80;99.90;;;;;;5034712;28;20183;-78
2022/10/25 00:46:06;;;;;;;0.60;0.60;;;8.70;99.90;;;;;;5032525;28;20172;-77
2022/10/25 00:48:32;;;;;;;0.60;0.60;;;8.70;99.90;;;;;;5032638;28;20186;-77
2022/10/25 00:50:57;;;;;;;0.63;0.63;;;8.70;99.90;;;;;;5032256;28;20290;-76
2022/10/25 00:53:28;;;;;;;0.50;0.50;;;8.80;99.90;;;;;;5032340;28;20183;-78
2022/10/25 00:56:01;;;;;;;0.50;0.50;;;8.70;99.90;;;;;;5032660;28;20186;-76
2022/10/25 00:58:30;;;;;;;0.50;0.50;;;8.60;99.90;;;;;;5032745;28;20254;-77
2022/10/25 01:00:56;;;;;;;0.60;0.60;;;8.70;99.90;;;;;;5032577;28;20259;-77
2022/10/25 01:03:22;;;;;;;0.70;0.70;;;8.70;99.90;;;;;;5032661;28;20180;-77
2022/10/25 01:05:50;;;;;;;0.63;0.63;;;8.60;99.90;;;;;;5032625;28;20215;-77
2022/10/25 01:08:17;;;;;;;0.60;0.60;;;8.60;99.90;;;;;;5032475;28;20484;-77
2022/10/25 01:10:43;;;;;;;0.60;0.60;;;8.60;99.90;;;;;;5031630;28;20234;-77
2022/10/25 01:13:09;;;;;;;0.70;0.70;;;8.50;99.90;;;;;;5033864;28;20199;-77
2022/10/25 01:15:59;;;;;;;0.60;0.60;;;8.50;99.90;;;;;;5035166;28;20715;-77
2022/10/25 01:18:42;;;;;;;0.60;0.60;;;8.50;99.90;;;;;;5037770;28;20714;-76
2022/10/25 01:21:34;;;;;;;0.67;0.67;;;8.50;99.90;;;;;;5031424;28;20207;-76
2022/10/25 01:24:22;;;;;;;0.70;0.70;;;8.50;99.90;;;;;;5032023;28;20183;-77
2022/10/25 01:27:06;;;;;;;0.63;0.63;;;8.60;99.90;;;;;;5013117;28;20191;-76
2022/10/25 01:30:01;;;;;;;0.70;0.70;;;8.50;99.90;;;;;;5031527;28;20179;-78
2022/10/25 01:32:42;;;;;;;0.70;0.70;;;8.40;99.90;;;;;;5038337;28;20176;-77
2022/10/25 01:35:24;;;;;;;0.70;0.70;;;8.40;99.90;;;;;;5035550;28;20230;-76
2022/10/25 01:37:59;;;;;;;0.70;0.70;;;8.40;99.90;;;;;;5034499;28;20191;-77
2022/10/25 01:40:44;;;;;;;0.60;0.60;;;8.40;99.90;;;;;;5031510;28;20577;-76
2022/10/25 01:43:21;;;;;;;0.60;0.60;;;8.30;99.90;;;;;;5031591;28;20686;-77
2022/10/25 01:45:53;;;;;;;0.60;0.60;;;8.30;99.90;;;;;;5031187;28;20683;-77
2022/10/25 01:48:25;;;;;;;0.67;0.67;;;8.20;99.90;;;;;;5031412;28;20172;-77
2022/10/25 01:50:51;;;;;;;0.70;0.70;;;8.20;99.90;;;;;;5033652;28;20204;-76
2022/10/25 01:53:16;;;;;;;0.60;0.60;;;8.00;99.90;;;;;;5035548;28;20206;-77
2022/10/25 01:55:53;;;;;;;0.60;0.60;;;8.00;99.90;;;;;;5035781;28;20192;-76
2022/10/25 01:58:40;;;;;;;0.70;0.70;;;8.00;99.90;;;;;;5035616;28;20238;-76
2022/10/25 02:01:26;;;;;;;0.70;0.70;;;7.90;99.90;;;;;;5035081;28;20733;-77
2022/10/25 02:04:21;;;;;;;0.60;0.60;;;7.90;99.90;;;;;;5035280;28;20180;-77
2022/10/25 02:06:53;;;;;;;0.60;0.60;;;7.90;99.90;;;;;;5022602;28;20191;-76
2022/10/25 02:09:37;;;;;;;0.70;0.70;;;8.00;99.90;;;;;;5035077;28;20179;-77
2022/10/25 02:12:06;;;;;;;0.70;0.70;;;8.10;99.90;;;;;;5034903;28;20253;-76
2022/10/25 02:14:37;;;;;;;0.60;0.60;;;8.20;99.90;;;;;;5034966;28;20787;-76
2022/10/25 02:17:11;;;;;;;0.50;0.50;;;8.20;99.90;;;;;;5035191;28;20182;-77
2022/10/25 02:19:48;;;;;;;0.77;0.77;;;8.20;99.90;;;;;;5034437;28;20266;-77
2022/10/25 02:22:16;;;;;;;0.60;0.60;;;8.10;99.90;;;;;;5034881;28;20656;-76
2022/10/25 02:24:44;;;;;;;0.60;0.60;;;8.00;99.90;;;;;;5035324;28;20183;-77
2022/10/25 02:27:11;;;;;;;0.80;0.80;;;7.90;99.90;;;;;;5034697;28;20545;-76
2022/10/25 02:29:38;;;;;;;0.70;0.70;;;7.90;99.90;;;;;;5034699;28;20532;-77
2022/10/25 02:32:04;;;;;;;0.83;0.83;;;7.90;99.90;;;;;;5034808;28;20282;-78
2022/10/25 02:34:31;;;;;;;0.73;0.73;;;7.80;99.90;;;;;;5034934;28;20298;-78
2022/10/25 02:36:56;;;;;;;0.63;0.63;;;7.80;99.90;;;;;;5034720;28;20199;-77
2022/10/25 02:39:24;;;;;;;0.60;0.60;;;7.90;99.90;;;;;;5034608;28;20184;-78
2022/10/25 02:41:49;;;;;;;0.60;0.60;;;8.00;99.90;;;;;;5034201;28;20202;-78
2022/10/25 02:44:15;;;;;;;0.60;0.60;;;7.90;99.90;;;;;;5034923;28;20310;-77
2022/10/25 02:46:40;;;;;;;0.70;0.70;;;7.90;99.90;;;;;;5035679;28;20591;-78
2022/10/25 02:49:06;;;;;;;0.70;0.70;;;7.80;99.90;;;;;;5036484;28;20184;-77
2022/10/25 02:51:31;;;;;;;0.70;0.70;;;7.80;99.90;;;;;;5035135;28;20198;-78
2022/10/25 02:53:57;;;;;;;0.80;0.80;;;7.80;99.90;;;;;;5035172;28;20212;-77
2022/10/25 02:56:23;;;;;;;0.70;0.70;;;7.90;99.90;;;;;;5035061;28;20179;-77
2022/10/25 02:58:51;;;;;;;0.70;0.70;;;7.80;99.90;;;;;;5035472;28;20184;-78
2022/10/25 03:01:19;;;;;;;0.67;0.67;;;7.80;99.90;;;;;;5034197;28;20206;-78
2022/10/25 03:03:45;;;;;;;0.80;0.80;;;7.90;99.90;;;;;;5035365;28;20233;-78
2022/10/25 03:06:11;;;;;;;0.80;0.80;;;7.80;99.90;;;;;;5035757;28;20180;-78
2022/10/25 03:08:38;;;;;;;0.60;0.60;;;7.70;99.90;;;;;;5036334;28;20187;-79
2022/10/25 03:11:05;;;;;;;0.70;0.70;;;7.70;99.90;;;;;;5037879;28;20735;-78
2022/10/25 03:13:30;;;;;;;0.57;0.57;;;7.60;99.90;;;;;;5041251;28;20294;-78
2022/10/25 03:15:56;;;;;;;0.70;0.70;;;7.70;99.90;;;;;;5020355;28;20191;-78
2022/10/25 03:18:22;;;;;;;0.57;0.57;;;7.50;99.90;;;;;;5040512;28;20207;-78
2022/10/25 03:20:48;;;;;;;0.60;0.60;;;7.50;99.90;;;;;;5036871;28;20295;-78
2022/10/25 03:23:13;;;;;;;0.60;0.60;;;7.50;99.90;;;;;;5033803;28;20187;-76
2022/10/25 03:25:39;;;;;;;0.70;0.70;;;7.40;99.90;;;;;;5033526;28;20581;-77
2022/10/25 03:28:05;;;;;;;0.60;0.60;;;7.50;99.90;;;;;;5034421;28;20234;-76
2022/10/25 03:30:31;;;;;;;0.67;0.67;;;7.50;99.90;;;;;;5034382;28;20199;-76
2022/10/25 03:32:57;;;;;;;0.70;0.70;;;7.50;99.90;;;;;;5032443;28;20291;-76
2022/10/25 03:35:23;;;;;;;0.60;0.60;;;7.50;99.90;;;;;;5032919;28;20770;-77
2022/10/25 03:37:50;;;;;;;0.60;0.60;;;7.50;99.90;;;;;;5033663;28;20191;-77
2022/10/25 03:40:16;;;;;;;0.70;0.70;;;7.50;99.90;;;;;;5033268;28;20286;-77
2022/10/25 03:42:41;;;;;;;0.80;0.80;;;7.40;99.90;;;;;;5033361;28;20246;-77
2022/10/25 03:45:07;;;;;;;0.60;0.60;;;7.20;99.90;;;;;;5033629;28;20663;-78
2022/10/25 03:47:33;;;;;;;0.60;0.60;;;7.20;99.90;;;;;;5033409;28;20176;-77
2022/10/25 03:49:59;;;;;;;0.60;0.60;;;7.10;99.90;;;;;;5033310;28;20206;-77
2022/10/25 03:52:24;;;;;;;0.70;0.70;;;7.10;99.90;;;;;;5034194;28;20675;-78
2022/10/25 03:54:50;;;;;;;0.70;0.70;;;7.10;99.90;;;;;;5033716;28;20301;-77
2022/10/25 03:57:16;;;;;;;0.70;0.70;;;7.20;99.90;;;;;;5034167;28;20559;-76
2022/10/25 03:59:43;;;;;;;0.60;0.60;;;7.20;99.90;;;;;;5032614;28;20703;-77
2022/10/25 04:02:09;;;;;;;0.70;0.70;;;7.20;99.90;;;;;;5033095;28;20226;-77
2022/10/25 04:04:35;;;;;;;0.70;0.70;;;7.20;99.90;;;;;;5033169;28;20168;-77
2022/10/25 04:07:00;;;;;;;0.60;0.60;;;7.10;99.90;;;;;;5033088;28;20666;-77
2022/10/25 04:09:26;;;;;;;0.77;0.77;;;7.10;99.90;;;;;;5032799;28;20230;-77
2022/10/25 04:11:51;;;;;;;0.60;0.60;;;7.10;99.90;;;;;;5032251;28;20204;-77
2022/10/25 04:14:17;;;;;;;0.70;0.70;;;7.20;99.90;;;;;;5031776;28;20277;-77
2022/10/25 04:16:42;;;;;;;0.70;0.70;;;7.20;99.90;;;;;;5032758;28;20749;-76
2022/10/25 04:19:08;;;;;;;0.70;0.70;;;7.20;99.90;;;;;;5032707;28;20187;-77
2022/10/25 04:21:33;;;;;;;0.70;0.70;;;7.20;99.90;;;;;;5032242;28;20267;-77
2022/10/25 04:23:59;;;;;;;0.70;0.70;;;7.40;99.90;;;;;;5032336;28;20706;-77
2022/10/25 04:26:24;;;;;;;0.80;0.80;;;7.50;99.90;;;;;;5032506;28;20202;-77
2022/10/25 04:28:51;;;;;;;0.70;0.70;;;7.40;99.90;;;;;;5032605;28;20188;-77
2022/10/25 04:31:17;;;;;;;0.67;0.67;;;7.40;99.90;;;;;;5032943;28;20192;-77
2022/10/25 04:33:43;;;;;;;0.70;0.70;;;7.50;99.90;;;;;;5032098;28;20698;-77
2022/10/25 04:36:08;;;;;;;0.70;0.70;;;7.40;99.90;;;;;;5032276;28;20187;-77
2022/10/25 04:38:34;;;;;;;0.60;0.60;;;7.30;99.90;;;;;;5032419;28;20207;-77
2022/10/25 04:41:00;;;;;;;0.70;0.70;;;7.20;99.90;;;;;;5032241;28;20196;-78
2022/10/25 04:43:27;;;;;;;0.57;0.57;;;7.20;99.90;;;;;;5032090;28;20234;-78
2022/10/25 04:45:53;;;;;;;0.60;0.60;;;7.30;99.90;;;;;;5032525;28;20179;-77
2022/10/25 04:48:19;;;;;;;0.70;0.70;;;7.30;99.90;;;;;;5032689;28;20553;-77
2022/10/25 04:50:46;;;;;;;0.70;0.70;;;7.30;99.90;;;;;;5031931;28;20227;-77
2022/10/25 04:53:11;;;;;;;0.70;0.70;;;7.30;99.90;;;;;;5032042;28;20180;-78
2022/10/25 04:55:37;;;;;;;0.60;0.60;;;7.20;99.90;;;;;;5031958;28;20215;-78
2022/10/25 04:58:02;;;;;;;0.60;0.60;;;7.10;99.90;;;;;;5031985;28;20180;-77
2022/10/25 05:00:28;;;;;;;0.83;0.83;;;7.10;99.90;;;;;;5031629;28;20200;-77
2022/10/25 05:02:55;;;;;;;0.70;0.70;;;7.00;99.90;;;;;;5031725;28;20264;-78
2022/10/25 05:05:23;;;;;;;0.70;0.70;;;7.00;99.90;;;;;;5033536;28;20183;-77
2022/10/25 05:07:49;;;;;;;0.70;0.70;;;7.10;99.90;;;;;;5033828;28;20641;-77
2022/10/25 05:10:14;;;;;;;0.70;0.70;;;7.10;99.90;;;;;;5033498;28;20202;-78
2022/10/25 05:12:40;;;;;;;0.70;0.70;;;7.10;99.90;;;;;;5035748;28;20207;-79
2022/10/25 05:15:06;;;;;;;0.60;0.60;;;7.10;99.90;;;;;;5035320;28;20212;-78
2022/10/25 05:17:32;;;;;;;0.60;0.60;;;7.10;99.90;;;;;;5033592;28;20226;-77
2022/10/25 05:19:58;;;;;;;0.80;0.80;;;7.10;99.90;;;;;;5031277;28;20183;-77
2022/10/25 05:22:24;;;;;;;0.70;0.70;;;7.10;99.90;;;;;;5031638;28;20660;-77
2022/10/25 05:24:50;;;;;;;0.63;0.63;;;7.10;99.90;;;;;;5031341;28;20187;-78
2022/10/25 05:27:15;;;;;;;0.70;0.70;;;7.10;99.90;;;;;;5031864;28;20587;-79
2022/10/25 05:29:41;;;;;;;0.90;0.90;;;7.20;99.90;;;;;;5033363;28;20180;-80
2022/10/25 05:32:07;;;;;;;0.60;0.60;;;7.20;99.90;;;;;;5029495;28;20249;-78
2022/10/25 05:34:32;;;;;;;0.70;0.70;;;7.20;99.90;;;;;;5029907;28;20300;-78
2022/10/25 05:36:59;;;;;;;0.60;0.60;;;7.10;99.90;;;;;;5047121;28;20207;-79
2022/10/25 05:39:25;;;;;;;0.70;0.70;;;7.00;99.90;;;;;;5053572;28;20209;-79
2022/10/25 05:41:50;;;;;;;0.70;0.70;;;7.10;99.90;;;;;;5053540;28;20725;-79
2022/10/25 05:44:16;;;;;;;0.70;0.70;;;7.00;99.90;;;;;;5053908;28;20714;-79
2022/10/25 05:46:43;;;;;;;0.70;0.70;;;6.90;99.90;;;;;;5054151;28;20263;-80
2022/10/25 05:49:09;;;;;;;0.70;0.70;;;6.90;99.90;;;;;;5056510;28;20175;-78
2022/10/25 05:51:36;;;;;;;0.70;0.70;;;7.00;99.90;;;;;;5059108;28;20216;-80
2022/10/25 05:54:04;;;;;;;0.80;0.80;;;7.00;99.90;;;;;;5047812;28;20219;-78
2022/10/25 05:56:31;;;;;;;0.60;0.60;;;7.00;99.90;;;;;;5057600;28;20252;-79
2022/10/25 05:58:56;;;;;;;0.63;0.63;;;7.10;99.90;;;;;;5058088;28;20187;-78
2022/10/25 06:01:23;;;;;;;0.60;0.60;;;7.10;99.90;;;;;;5051734;28;20210;-79
2022/10/25 06:03:53;;;;;;;0.60;0.60;;;7.10;99.90;;;;;;5053691;28;20183;-80
2022/10/25 06:06:19;;;;;;;0.70;0.70;;;7.10;99.90;;;;;;5053634;28;20606;-79
2022/10/25 06:08:45;;;;;;;0.73;0.73;;;7.00;99.90;;;;;;5053942;28;20183;-80
2022/10/25 06:11:14;;;;;;;0.73;0.73;;;7.20;99.90;;;;;;5055024;28;20199;-80
2022/10/25 06:13:40;;;;;;;0.70;0.70;;;7.30;99.90;;;;;;5051456;28;20179;-80
2022/10/25 06:16:14;;;;;;;0.70;0.70;;;7.30;99.90;;;;;;5053055;28;20198;-80
2022/10/25 06:18:40;;;;;;;0.60;0.60;;;7.60;99.90;;;;;;5052417;28;20174;-78
2022/10/25 06:21:18;;;;;;;0.73;0.73;;;7.90;99.90;;;;;;5052454;28;20210;-79
2022/10/25 06:23:44;;;;;;;0.60;0.60;;;8.10;99.90;;;;;;5054191;28;20179;-80
2022/10/25 06:26:13;;;;;;;0.60;0.60;;;7.80;99.90;;;;;;5054879;28;20275;-80
2022/10/25 06:28:39;;;;;;;0.60;0.60;;;7.90;99.90;;;;;;5047114;28;20184;-80
2022/10/25 06:31:07;;;;;;;0.60;0.60;;;8.20;99.90;;;;;;5037645;28;20195;-78
2022/10/25 06:33:33;;;;;;;0.70;0.70;;;8.00;99.90;;;;;;5058042;28;20190;-76
2022/10/25 06:36:01;;;;;;;0.53;0.53;;;8.20;99.90;;;;;;5051304;28;20206;-77
2022/10/25 06:38:28;;;;;;;0.60;0.60;;;8.30;99.90;;;;;;5056833;28;20659;-78
2022/10/25 06:41:05;;;;;;;0.57;0.57;;;8.70;99.90;;;;;;5058229;28;20210;-77
2022/10/25 06:43:33;;;;;;;0.63;0.63;;;8.90;99.90;;;;;;5055270;28;20651;-76
2022/10/25 06:46:04;;;;;;;0.70;0.70;;;9.30;99.90;;;;;;5054663;28;20187;-77
2022/10/25 06:48:30;;;;;;;0.50;0.50;;;10.30;99.90;;;;;;5059161;28;20206;-78
2022/10/25 06:51:06;;;;;;;0.53;0.53;;;11.50;99.90;;;;;;5054115;28;20222;-77
2022/10/25 06:53:32;;;;;;;0.50;0.50;;;12.40;99.90;;;;;;5054656;28;20249;-75
2022/10/25 06:56:06;;;;;;;0.40;0.40;;;13.00;35.50;;;;;;5048766;28;20171;-77
2022/10/25 06:58:33;;;;;;;0.60;0.60;;;11.90;56.00;;;;;;5053995;28;20833;-78
2022/10/25 07:01:03;;;;;;;0.40;0.40;;;11.00;99.90;;;;;;5053640;28;20292;-76
2022/10/25 07:03:33;;;;;;;0.40;0.40;;;10.40;99.90;;;;;;5056404;28;20171;-76
2022/10/25 07:06:05;;;;;;;0.50;0.50;;;9.90;99.90;;;;;;5053990;28;20179;-76
2022/10/25 07:08:31;;;;;;;0.40;0.40;;;11.30;99.90;;;;;;5056121;28;20175;-77
2022/10/25 07:10:57;;;;;;;0.40;0.40;;;12.40;99.90;;;;;;5058235;28;20198;-78
2022/10/25 07:13:23;;;;;;;0.50;0.50;;;13.30;1.00;;;;;;5058471;28;20186;-78
2022/10/25 07:15:48;;;;;;;0.40;0.40;;;14.00;1.00;;;;;;5062837;28;20230;-78
2022/10/25 07:18:14;;;;;;;0.30;0.30;;;14.30;1.00;;;;;;5064280;28;20182;-79
2022/10/25 07:20:40;;;;;;;0.30;0.30;;;14.90;1.00;;;;;;5059975;28;20237;-78
2022/10/25 07:23:05;;;;;;;0.40;0.40;;;15.40;99.90;;;;;;5057545;28;21844;-79
2022/10/25 07:25:31;;;;;;;0.40;0.40;;;15.60;1.00;;;;;;5056574;28;20198;-79
2022/10/25 07:27:57;;;;;;;0.40;0.40;;;15.90;99.90;;;;;;5053155;28;20190;-76
2022/10/25 07:30:22;;;;;;;0.40;0.40;;;16.50;1.00;;;;;;5052590;28;20202;-76
2022/10/25 07:32:48;;;;;;;0.40;0.40;;;16.50;99.90;;;;;;5052151;28;20187;-77
2022/10/25 07:35:13;;;;;;;0.43;0.43;;;16.50;1.00;;;;;;5052005;28;20222;-78
2022/10/25 07:37:39;;;;;;;0.53;0.53;;;16.70;1.00;;;;;;5053671;28;20201;-77
2022/10/25 07:40:05;;;;;;;0.50;0.50;;;16.80;1.00;;;;;;5057969;28;20329;-78
2022/10/25 07:42:30;;;;;;;0.53;0.53;;;16.70;1.00;;;;;;5056907;28;20179;-78
2022/10/25 07:44:56;;;;;;;0.50;0.50;;;17.00;99.90;;;;;;5052473;28;20274;-79
2022/10/25 07:47:21;;;;;;;0.60;0.60;;;17.30;1.00;;;;;;5054450;28;20187;-78
2022/10/25 07:49:47;;;;;;;0.70;0.70;;;17.60;1.00;;;;;;5040232;28;20194;-78
2022/10/25 07:52:12;;;;;;;0.63;0.63;;;17.50;1.00;;;;;;5039860;28;20523;-78
2022/10/25 07:54:38;;;;;;;0.60;0.60;;;17.60;1.00;;;;;;5055607;28;20202;-80
2022/10/25 07:57:05;;;;;;;0.70;0.70;;;17.90;99.90;;;;;;5056473;28;20545;-77
2022/10/25 07:59:31;;;;;;;0.67;0.67;;;18.50;1.00;;;;;;5054659;28;20203;-79
2022/10/25 08:01:56;;;;;;;0.70;0.70;;;18.90;99.90;;;;;;5055278;28;20206;-78
2022/10/25 08:04:22;;;;;;;0.60;0.60;;;18.90;99.90;;;;;;5058361;28;20179;-79
2022/10/25 08:06:48;;;;;;;0.67;0.67;;;18.70;1.00;;;;;;5054659;28;20179;-78
2022/10/25 08:09:13;;;;;;;0.50;0.50;;;18.70;1.00;;;;;;5053702;28;20279;-77
2022/10/25 08:11:39;;;;;;;0.60;0.60;;;18.30;1.00;;;;;;5053967;28;20210;-77
2022/10/25 08:14:04;;;;;;;0.60;0.60;;;18.50;1.00;;;;;;5053566;28;20207;-77
2022/10/25 08:16:30;;;;;;;0.40;0.40;;;18.70;1.00;;;;;;5053691;28;20221;-77
2022/10/25 08:18:55;;;;;;;0.53;0.53;;;19.00;99.90;;;;;;5053226;28;20179;-78
2022/10/25 08:21:21;;;;;;;0.50;0.50;;;19.20;1.00;;;;;;5052394;28;20199;-78
2022/10/25 08:23:46;;;;;;;0.30;0.30;;;19.30;1.00;;;;;;5054483;28;20183;-79
2022/10/25 08:26:12;;;;;;;0.60;0.60;;;19.70;99.90;;;;;;5056882;28;20182;-77
2022/10/25 08:28:37;;;;;;;0.30;0.30;;;20.00;99.90;;;;;;5059018;28;20523;-77
2022/10/25 08:31:03;;;;;;;0.50;0.50;;;20.10;99.90;;;;;;5057259;28;20699;-78
2022/10/25 08:33:29;;;;;;;0.40;0.40;;;19.70;1.00;;;;;;5060682;28;20183;-77
2022/10/25 08:35:57;;;;;;;0.60;0.60;;;20.50;1.00;;;;;;5057588;28;20215;-77
2022/10/25 08:38:23;;;;;;;0.57;0.57;;;20.80;99.90;;;;;;5060594;28;20605;-79
2022/10/25 08:41:02;;;;;;;0.40;0.40;;;21.40;99.90;;;;;;5060384;28;20257;-78
2022/10/25 08:44:07;;;;;;;0.40;0.40;;;21.70;1.00;;;;;;5055774;28;20179;-75
2022/10/25 08:46:36;;;;;;;0.57;0.57;;;21.90;1.00;;;;;;5047088;28;20171;-78
2022/10/25 08:49:33;;;;;;;0.50;0.50;;;21.90;1.00;;;;;;5054521;28;20190;-78
2022/10/25 08:52:00;;;;;;;0.47;0.47;;;22.10;1.00;;;;;;5052606;28;20199;-78
2022/10/25 08:54:36;;;;;;;0.50;0.50;;;22.10;1.00;;;;;;5053012;28;20203;-79
2022/10/25 08:57:18;;;;;;;0.37;0.37;;;22.00;1.00;;;;;;5052418;28;20175;-78
2022/10/25 08:59:48;;;;;;;0.47;0.47;;;21.90;1.00;;;;;;5054242;28;20250;-79
2022/10/25 09:02:53;;;;;;;0.57;0.57;;;21.80;1.00;;;;;;5052114;28;20183;-77
2022/10/25 09:05:36;;;;;;;0.40;0.40;;;22.20;1.00;;;;;;5050376;28;20231;-76
2022/10/25 09:08:11;;;;;;;0.40;0.40;;;22.70;1.00;;;;;;5054303;28;20301;-77
2022/10/25 09:10:53;;;;;;;0.40;0.40;;;22.00;1.00;;;;;;5053145;28;20205;-80
2022/10/25 09:13:53;;;;;;;0.37;0.37;;;22.00;1.00;;;;;;5050741;28;20207;-76
2022/10/25 09:16:22;;;;;;;0.40;0.40;;;22.70;1.00;;;;;;5051513;28;20191;-78
2022/10/25 09:18:58;;;;;;;0.60;0.60;;;22.10;1.00;;;;;;5055607;28;20178;-79
2022/10/25 09:21:41;;;;;;;0.57;0.57;;;22.00;1.00;;;;;;5053061;28;20706;-75
2022/10/25 09:24:26;;;;;;;0.50;0.50;;;21.50;1.00;;;;;;5047924;28;20205;-75
2022/10/25 09:27:13;;;;;;;0.50;0.50;;;21.60;1.00;;;;;;5051342;28;20186;-79
2022/10/25 09:29:38;;;;;;;0.57;0.57;;;21.60;1.00;;;;;;5053553;28;20183;-76
2022/10/25 09:32:16;;;;;;;0.47;0.47;;;21.80;1.00;;;;;;5049286;28;20210;-78
2022/10/25 09:34:42;;;;;;;0.50;0.50;;;21.90;1.00;;;;;;5051970;28;20202;-77
2022/10/25 09:37:37;;;;;;;0.57;0.57;;;21.30;1.00;;;;;;5051439;28;20206;-76
2022/10/25 09:40:09;;;;;;;0.50;0.50;;;21.90;1.00;;;;;;5051225;28;20263;-78
2022/10/25 09:42:43;;;;;;;0.50;0.50;;;22.60;1.00;;;;;;5051948;28;20263;-77
2022/10/25 09:45:24;;;;;;;0.40;0.40;;;22.10;1.00;;;;;;5050613;28;20182;-77
2022/10/25 09:48:28;;;;;;;0.47;0.47;;;22.50;1.00;;;;;;5041519;28;20666;-79
2022/10/25 09:51:23;;;;;;;0.60;0.60;;;22.10;1.00;;;;;;5036035;28;20202;-77
2022/10/25 09:53:50;;;;;;;0.50;0.50;;;22.90;1.00;;;;;;5053156;28;20279;-80
2022/10/25 09:56:16;;;;;;;0.60;0.60;;;22.20;1.00;;;;;;5051331;28;20203;-78
2022/10/25 09:58:46;;;;;;;0.50;0.50;;;22.50;1.00;;;;;;5051262;28;20183;-79
2022/10/25 10:01:25;;;;;;;0.40;0.40;;;22.30;1.00;;;;;;5049899;28;20750;-79
2022/10/25 10:03:52;;;;;;;0.53;0.53;;;22.60;1.00;;;;;;5052798;28;20187;-76
2022/10/25 10:06:38;;;;;;;0.60;0.60;;;22.50;1.00;;;;;;5052879;28;20222;-77
2022/10/25 10:09:09;;;;;;;0.60;0.60;;;22.20;1.00;;;;;;5049069;28;20171;-75
2022/10/25 10:11:35;;;;;;;0.60;0.60;;;22.20;1.00;;;;;;5050581;28;20253;-74
2022/10/25 10:14:22;;;;;;;0.60;0.60;;;22.30;1.00;;;;;;5054421;28;20298;-76
2022/10/25 10:16:52;;;;;;;0.50;0.50;;;22.10;1.00;;;;;;5047787;28;20182;-76
2022/10/25 10:19:20;;;;;;;0.50;0.50;;;22.20;1.00;;;;;;5054007;28;20179;-76
2022/10/25 10:21:58;;;;;;;0.50;0.50;;;22.30;1.00;;;;;;5051604;28;20199;-77
2022/10/25 10:24:32;;;;;;;0.50;0.50;;;22.70;1.00;;;;;;5039494;28;20174;-80
2022/10/25 10:27:05;;;;;;;0.50;0.50;;;22.80;1.00;;;;;;5053713;28;20238;-78
2022/10/25 10:29:33;;;;;;;0.53;0.53;;;22.10;1.00;;;;;;5050510;28;20180;-77
2022/10/25 10:32:05;;;;;;;0.60;0.60;;;22.50;1.00;;;;;;5053330;28;20227;-78
2022/10/25 10:34:37;;;;;;;0.40;0.40;;;22.90;1.00;;;;;;5052301;28;20242;-77
2022/10/25 10:37:12;;;;;;;0.60;0.60;;;23.40;1.00;;;;;;5036022;28;20707;-78
2022/10/25 10:40:03;;;;;;;0.73;0.73;;;23.50;1.00;;;;;;5027604;28;20218;-79
2022/10/25 10:42:29;;;;;;;0.60;0.60;;;23.60;1.00;;;;;;5037986;28;20175;-76
2022/10/25 10:45:06;;;;;;;0.40;0.40;;;23.60;1.00;;;;;;5042494;28;20256;-77
2022/10/25 10:47:47;;;;;;;0.47;0.47;;;23.30;1.00;;;;;;5050874;28;20179;-76
2022/10/25 10:50:21;;;;;;;0.50;0.50;;;23.90;1.00;;;;;;5046639;28;20693;-76
2022/10/25 10:52:57;;;;;;;0.50;0.50;;;24.60;1.00;;;;;;5052784;28;20170;-75
2022/10/25 10:55:37;;;;;;;0.50;0.50;;;24.60;1.00;;;;;;5052505;28;20278;-77
2022/10/25 10:58:37;;;;;;;0.60;0.60;;;24.80;1.00;;;;;;5052075;28;20896;-77
2022/10/25 11:01:12;;;;;;;0.50;0.50;;;25.00;1.00;;;;;;5037986;28;20199;-76
2022/10/25 11:03:40;;;;;;;0.57;0.57;;;25.80;1.00;;;;;;5053917;28;20179;-77
2022/10/25 11:06:06;;;;;;;0.57;0.57;;;26.00;1.00;;;;;;5056321;28;20571;-78
2022/10/25 11:08:32;;;;;;;0.60;0.60;;;26.10;1.00;;;;;;5058056;28;20243;-78
2022/10/25 11:11:33;;;;;;;0.53;0.53;;;26.10;1.00;;;;;;5054099;28;20983;-80
2022/10/25 11:14:00;;;;;;;0.70;0.70;;;25.50;1.00;;;;;;5012608;28;20204;-79
2022/10/25 11:16:34;;;;;;;0.50;0.50;;;25.70;1.00;;;;;;5047445;28;20183;-77
2022/10/25 11:19:02;;;;;;;0.60;0.60;;;25.80;1.00;;;;;;5056052;28;20186;-82
2022/10/25 11:21:53;;;;;;;0.50;0.50;;;26.50;1.00;;;;;;5058965;28;20199;-79
2022/10/25 11:24:43;;;;;;;0.60;0.60;;;27.50;1.00;;;;;;5056712;28;20171;-81
2022/10/25 11:27:30;;;;;;;0.60;0.60;;;26.70;1.00;;;;;;5041737;28;20187;-79
2022/10/25 11:29:58;;;;;;;0.60;0.60;;;26.50;1.00;;;;;;5046378;28;20193;-79
2022/10/25 11:32:48;;;;;;;0.60;0.60;;;26.60;1.00;;;;;;5055333;28;20262;-81
2022/10/25 11:35:30;;;;;;;0.57;0.57;;;25.90;1.00;;;;;;5055047;28;20222;-80
2022/10/25 11:38:23;;;;;;;0.70;0.70;;;26.70;1.00;;;;;;5054173;28;20175;-82
2022/10/25 11:41:03;;;;;;;0.60;0.60;;;26.60;1.00;;;;;;5056883;28;20336;-78
2022/10/25 11:43:51;;;;;;;0.63;0.63;;;26.20;1.00;;;;;;5058723;28;20197;-77
2022/10/25 11:46:44;;;;;;;0.70;0.70;;;26.30;1.00;;;;;;5052217;28;20190;-76
2022/10/25 11:49:27;;;;;;;0.63;0.63;;;27.10;1.00;;;;;;5054273;28;20187;-80
2022/10/25 11:52:07;;;;;;;0.60;0.60;;;27.10;1.00;;;;;;5047578;28;20223;-77
2022/10/25 11:55:15;;;;;;;0.60;0.60;;;26.70;1.00;;;;;;5048154;28;20571;-76
2022/10/25 11:57:41;;;;;;;0.70;0.70;;;27.10;1.00;;;;;;5045213;28;20194;-75
2022/10/25 12:00:16;;;;;;;0.50;0.50;;;26.50;1.00;;;;;;5058448;28;20179;-75
2022/10/25 12:03:00;;;;;;;0.63;0.63;;;26.20;1.00;;;;;;5049604;28;20190;-80
2022/10/25 12:05:38;;;;;;;0.60;0.60;;;26.00;1.00;;;;;;5053987;28;20250;-82
2022/10/25 12:08:47;;;;;;;0.57;0.57;;;25.20;1.00;;;;;;5054000;28;20197;-80
2022/10/25 12:11:21;;;;;;;0.60;0.60;;;25.50;1.00;;;;;;5050685;28;20293;-78
2022/10/25 12:13:51;;;;;;;0.50;0.50;;;25.90;1.00;;;;;;5052139;28;20648;-78
2022/10/25 12:16:20;;;;;;;0.50;0.50;;;25.30;1.00;;;;;;5052921;28;20187;-80
2022/10/25 12:19:03;;;;;;;0.50;0.50;;;25.30;1.00;;;;;;5053115;28;20258;-78
2022/10/25 12:21:37;;;;;;;0.70;0.70;;;26.10;1.00;;;;;;5055207;28;20202;-82
2022/10/25 12:24:04;;;;;;;0.70;0.70;;;26.80;1.00;;;;;;5046853;28;20190;-80
2022/10/25 12:26:34;;;;;;;0.40;0.40;;;26.00;1.00;;;;;;5048528;28;20195;-80
2022/10/25 12:29:03;;;;;;;0.50;0.50;;;26.30;1.00;;;;;;5046567;28;20261;-79
2022/10/25 12:31:36;;;;;;;0.60;0.60;;;27.60;1.00;;;;;;5049640;28;20286;-79
2022/10/25 12:34:26;;;;;;;0.60;0.60;;;27.40;1.00;;;;;;5050427;28;20214;-80
2022/10/25 12:36:56;;;;;;;0.60;0.60;;;28.00;1.00;;;;;;5045625;28;20190;-78
2022/10/25 12:39:43;;;;;;;0.70;0.70;;;28.10;1.00;;;;;;5050076;28;20175;-78
2022/10/25 12:42:26;;;;;;;0.60;0.60;;;27.50;1.00;;;;;;5052132;28;20588;-80
2022/10/25 12:45:10;;;;;;;0.60;0.60;;;27.40;1.00;;;;;;5048067;28;20235;-77
2022/10/25 12:48:03;;;;;;;0.50;0.50;;;26.70;1.00;;;;;;5034800;28;20179;-78
2022/10/25 12:50:53;;;;;;;0.60;0.60;;;26.90;1.00;;;;;;5049868;28;20225;-78
2022/10/25 12:53:43;;;;;;;0.63;0.63;;;26.30;1.00;;;;;;5045862;28;20190;-78
2022/10/25 12:56:33;;;;;;;0.50;0.50;;;26.80;1.00;;;;;;5049836;28;20195;-78
2022/10/25 12:59:17;;;;;;;0.50;0.50;;;27.00;1.00;;;;;;5050586;28;20194;-80
2022/10/25 13:01:57;;;;;;;0.40;0.40;;;26.60;1.00;;;;;;5052462;28;20191;-77
2022/10/25 13:04:41;;;;;;;0.50;0.50;;;26.30;1.00;;;;;;5053849;28;20175;-77
2022/10/25 13:07:08;;;;;;;0.43;0.43;;;26.40;1.00;;;;;;5057758;28;20259;-79
2022/10/25 13:09:36;;;;;;;0.80;0.80;;;27.40;1.00;;;;;;5053645;28;20262;-78
2022/10/25 13:12:14;;;;;;;0.60;0.60;;;26.50;1.00;;;;;;5054338;28;20207;-79
2022/10/25 13:14:50;;;;;;;0.43;0.43;;;26.10;1.00;;;;;;5053364;28;20215;-78
2022/10/25 13:17:15;;;;;;;0.50;0.50;;;24.50;1.00;;;;;;5055124;28;20174;-79
2022/10/25 13:19:43;;;;;;;0.50;0.50;;;24.40;1.00;;;;;;5056686;28;20272;-81